• Join FlightAware (Why Join?)
  • Login
  • US Flag 
06:38AM EDT


 

Airport Tracker/Info


-or-


 

Live Flight TrackerFlight Track Log ✈ SWA1802 ✈ 19-Jul-2013 ✈ KMDW - KLAX

Flight Track Log - Related Links

Times and Time Zones

All times are in EDT time to prevent confusion due to time zone crossing. See the SWA1802 flight status page for this flight to view local times or setup timezone preferences in your user account.

Time Position Orientation Groundspeed Altitude Reporting Facility
EDT Latitude Longitude Course Direction KTS MPH feet Rate Location/Type
06:55PM 41.8020 -87.7920 251° West 163 188 2,300  Level FlightAware
06:56PM 41.7890 -87.8330 247° West 215 247 3,000 1,860 Climbing FlightAware
06:56PM 41.7840 -87.8480 246° West 222 255 3,500 2,640 Climbing FlightAware
06:57PM 41.7720 -87.8870 248° West 234 269 4,900 2,580 Climbing FlightAware
06:57PM 41.7590 -87.9270 246° West 250 288 6,100 2,940 Climbing FlightAware
06:58PM 41.7450 -87.9670 245° Southwest 252 290 7,700 2,940 Climbing FlightAware
06:58PM 41.7390 -88.0010 257° West 259 298 8,600 2,460 Climbing FlightAware
06:58PM 41.7370 -88.0510 267° West 269 310 9,900 2,520 Climbing FlightAware
06:59PM 41.7330 -88.1240 266° West 284 327 11,700 1,800 Climbing FlightAware
07:00PM 41.7300 -88.1990 267° West 318 366 12,400 1,200 Climbing FlightAware
07:01PM 41.7200 -88.2910 262° West 360 414 13,400 1,920 Climbing FlightAware
07:01PM 41.7050 -88.3820 258° West 365 420 15,200 2,400 Climbing FlightAware
07:02PM 41.6910 -88.4720 258° West 377 434 16,700 2,100 Climbing FlightAware
07:03PM 41.6750 -88.5680 257° West 386 444 18,200 1,860 Climbing FlightAware
07:03PM 41.6650 -88.6300 258° West 390 449 19,100 1,860 Climbing FlightAware
07:04PM 41.6490 -88.7260 257° West 396 456 20,500 1,800 Climbing FlightAware
07:05PM 41.6330 -88.8290 258° West 404 465 21,800 1,860 Climbing FlightAware
07:05PM 41.6140 -88.9400 257° West 414 476 23,000 1,920 Climbing FlightAware
07:06PM 41.5950 -89.0570 258° West 423 487 24,300 1,680 Climbing FlightAware
07:07PM 41.5790 -89.1550 258° West 424 488 25,400 1,500 Climbing FlightAware
07:07PM 41.5630 -89.2500 257° West 427 491 26,300 1,140 Climbing FlightAware
07:08PM 41.5480 -89.3350 257° West 432 497 27,000 1,200 Climbing FlightAware
07:09PM 41.5230 -89.4850 257° West 440 506 28,100 1,320 Climbing FlightAware
07:09PM 41.5030 -89.6010 257° West 442 509 29,000 1,440 Climbing FlightAware
07:10PM 41.4850 -89.7080 257° West 437 503 30,100 1,380 Climbing FlightAware
07:11PM 41.4670 -89.8110 257° West 437 503 30,900 1,200 Climbing FlightAware
07:12PM 41.4470 -89.9290 257° West 438 504 31,800 1,200 Climbing FlightAware
07:12PM 41.4270 -90.0440 257° West 437 503 32,700 1,200 Climbing FlightAware
07:13PM 41.4090 -90.1460 257° West 433 498 33,500 1,320 Climbing FlightAware
07:14PM 41.3910 -90.2440 256° West 427 491 34,400 1,140 Climbing FlightAware
07:14PM 41.3740 -90.3420 257° West 427 491 35,000 840 Climbing FlightAware
07:15PM 41.3580 -90.4290 256° West 429 494 35,500 720 Climbing FlightAware
07:16PM 41.3400 -90.5330 257° West 430 495 36,000 300 Climbing FlightAware
07:16PM 41.3210 -90.6340 256° West 433 498 36,000  Level FlightAware
07:17PM 41.2810 -90.7750 249° West 433 498 36,000  Level FlightAware
07:18PM 41.2520 -90.8730 249° West 430 495 36,000  Level FlightAware
07:19PM 41.2160 -90.9920 248° West 429 494 36,000  Level FlightAware
07:19PM 41.1780 -91.1210 249° West 425 489 36,000  Level FlightAware
07:20PM 41.1470 -91.2280 249° West 426 490 36,000  Level FlightAware
07:21PM 41.1160 -91.3280 248° West 428 493 36,000  Level FlightAware
07:21PM 41.0880 -91.4230 249° West 428 493 36,000  Level FlightAware
07:22PM 41.1150 -91.3310 69° East 428 493 36,000  Level FlightAware
07:23PM 41.0340 -91.6010 248° West 429 494 36,000  Level FlightAware
07:24PM 40.9900 -91.6940 238° Southwest 432 497 36,000  Level FlightAware
07:24PM 40.9310 -91.8140 237° Southwest 432 497 36,000  Level FlightAware
07:25PM 40.8940 -91.8860 236° Southwest 432 497 36,000  Level FlightAware
07:26PM 40.8450 -91.9900 238° Southwest 436 502 36,000  Level FlightAware
07:26PM 40.8010 -92.0920 240° Southwest 433 498 36,000  Level FlightAware
07:27PM 40.7760 -92.1890 251° West 434 499 36,000  Level FlightAware
07:28PM 40.7450 -92.3270 254° West 436 502 36,000  Level FlightAware
07:29PM 40.7300 -92.4420 260° West 437 503 36,000  Level FlightAware
07:29PM 40.7150 -92.5670 261° West 439 505 36,000  Level FlightAware
07:30PM 40.7040 -92.6610 261° West 438 504 36,000  Level FlightAware
07:31PM 40.6900 -92.7670 260° West 436 502 36,000  Level FlightAware
07:31PM 40.6750 -92.8830 260° West 437 503 36,000  Level FlightAware
07:32PM 40.6640 -92.9760 261° West 438 504 36,000  Level FlightAware
07:33PM 40.6510 -93.0760 260° West 437 503 36,000  Level FlightAware
07:34PM 40.6330 -93.2120 260° West 436 502 36,000  Level FlightAware
07:34PM 40.6220 -93.2950 260° West 436 502 36,000  Level FlightAware
07:35PM 40.6070 -93.4060 260° West 434 499 36,000  Level FlightAware
07:35PM 40.5930 -93.5130 260° West 432 497 36,000  Level FlightAware
07:36PM 40.5770 -93.6350 260° West 431 496 36,000  Level FlightAware
07:37PM 40.5640 -93.7220 259° West 430 495 36,000  Level FlightAware
07:38PM 40.5530 -93.8010 260° West 430 495 36,000  Level FlightAware
07:38PM 40.5330 -93.9590 261° West 428 493 36,000  Level FlightAware
07:39PM 40.5170 -94.0710 259° West 428 493 36,000  Level FlightAware
07:40PM 40.5030 -94.1750 260° West 429 494 36,000  Level FlightAware
07:40PM 40.4910 -94.2610 260° West 430 495 36,000  Level FlightAware
07:41PM 40.4770 -94.3600 259° West 431 496 36,000  Level FlightAware
07:42PM 40.4540 -94.5180 259° West 432 497 36,000  Level FlightAware
07:43PM 40.4390 -94.6280 260° West 432 497 36,000  Level FlightAware
07:43PM 40.4250 -94.7240 259° West 432 497 36,000  Level FlightAware
07:44PM 40.4110 -94.8160 259° West 432 497 36,000  Level FlightAware
07:45PM 40.4010 -94.8890 260° West 432 497 36,000  Level FlightAware
07:45PM 40.3780 -95.0420 259° West 430 495 36,000  Level FlightAware
07:46PM 40.3600 -95.1670 259° West 430 495 36,000  Level FlightAware
07:47PM 40.3480 -95.2450 259° West 430 495 36,000  Level FlightAware
07:48PM 40.3330 -95.3500 259° West 430 495 36,000  Level FlightAware
07:49PM 40.3130 -95.4800 259° West 430 495 36,000  Level FlightAware
07:51PM 40.2890 -95.9190 266° West 430 495 36,000  Level FlightAware
07:52PM 40.2820 -96.0010 264° West 431 496 36,000  Level FlightAware
07:53PM 40.2730 -96.1310 265° West 432 497 36,000  Level FlightAware
07:53PM 40.2670 -96.2110 264° West 432 497 36,000  Level FlightAware
07:54PM 40.2580 -96.3550 265° West 431 496 36,000  Level FlightAware
07:55PM 40.2510 -96.4760 266° West 432 497 36,000  Level FlightAware
07:55PM 40.2440 -96.5910 265° West 434 499 36,000  Level FlightAware
07:56PM 40.2380 -96.6840 265° West 435 501 36,000  Level FlightAware
07:57PM 40.2230 -96.8170 262° West 439 505 36,000  Level FlightAware
07:58PM 40.2020 -96.9930 261° West 437 503 36,000  Level FlightAware
07:59PM 40.1870 -97.1130 261° West 434 499 36,000  Level FlightAware
08:00PM 40.1660 -97.2840 261° West 433 498 36,000  Level FlightAware
08:01PM 40.1490 -97.4250 261° West 434 499 36,000  Level FlightAware
08:02PM 40.1370 -97.5260 261° West 434 499 36,000  Level FlightAware
08:02PM 40.1390 -97.6700 271° West 426 490 36,000  Level FlightAware
08:03PM 40.1360 -97.7530 267° West 426 490 36,000  Level FlightAware
08:04PM 40.1340 -97.8350 268° West 424 488 36,000  Level FlightAware
08:04PM 40.1300 -97.9480 267° West 424 488 36,000  Level FlightAware
08:05PM 40.1270 -98.0270 267° West 424 488 36,000  Level FlightAware
08:06PM 40.1210 -98.1600 267° West 424 488 36,000  Level FlightAware
08:07PM 40.1170 -98.2550 267° West 424 488 36,000  Level FlightAware
08:07PM 40.1140 -98.3430 267° West 424 488 36,000  Level FlightAware
08:08PM 40.1110 -98.4210 267° West 424 488 36,000  Level FlightAware
08:09PM 40.1070 -98.5250 267° West 424 488 36,000  Level FlightAware
08:09PM 40.1030 -98.6040 266° West 424 488 36,000  Level FlightAware
08:11PM 40.0980 -98.7410 267° West 424 488 36,000  Level FlightAware
08:11PM 40.0950 -98.8190 267° West 424 488 36,000  Level FlightAware
08:12PM 40.0910 -98.9190 267° West 424 488 36,000  Level FlightAware
08:12PM 40.0880 -98.9980 267° West 424 488 36,000  Level FlightAware
08:13PM 40.0840 -99.0980 267° West 424 488 36,000  Level FlightAware
08:14PM 40.0672 -99.5497 267° West 440 506 36,000  Level Denver Center
08:16PM 40.0644 -99.7086 269° West 438 504 36,000  Level Denver Center
08:17PM 40.0636 -99.8694 270° West 441 507 36,000  Level Denver Center
08:18PM 40.0633 -100.0439 270° West 433 498 36,000  Level Denver Center
08:19PM 40.0575 -100.1961 267° West 436 502 36,000  Level Denver Center
08:20PM 40.0442 -100.3447 263° West 431 496 36,000  Level Denver Center
08:21PM 40.0236 -100.5206 261° West 437 503 36,000  Level Denver Center
08:22PM 40.0058 -100.6694 261° West 433 498 36,000  Level Denver Center
08:28PM 39.7700 -101.5890 261° West 451 519 36,000  Level FlightAware
08:28PM 39.7450 -101.6760 250° West 451 519 36,000  Level FlightAware
08:29PM 39.7200 -101.7670 250° West 451 519 36,000  Level FlightAware
08:30PM 39.6840 -101.8930 250° West 453 521 36,000 480 Level FlightAware
08:30PM 39.6510 -102.0100 250° West 454 522 36,700 480 Climbing FlightAware
08:31PM 39.6260 -102.0970 250° West 454 522 36,700 960 Level FlightAware
08:32PM 39.5920 -102.2190 250° West 447 514 38,000 900 Climbing FlightAware
08:33PM 39.5600 -102.3310 250° West 449 517 38,000  Level FlightAware
08:33PM 39.5340 -102.4230 250° West 449 517 38,000  Level FlightAware
08:34PM 39.4990 -102.5430 249° West 450 518 38,000  Level FlightAware
08:35PM 39.4680 -102.6510 250° West 450 518 38,000  Level FlightAware
08:35PM 39.4420 -102.7400 249° West 450 518 38,000  Level FlightAware
08:36PM 39.4070 -102.8600 249° West 450 518 38,000  Level FlightAware
08:37PM 39.3730 -102.9750 249° West 451 519 38,000  Level FlightAware
08:37PM 39.3440 -103.0720 249° West 452 520 38,000  Level FlightAware
08:38PM 39.3170 -103.1670 250° West 454 522 38,000  Level FlightAware
08:39PM 39.2860 -103.2690 249° West 457 526 38,000  Level FlightAware
08:39PM 39.2540 -103.3780 249° West 457 526 38,000  Level FlightAware
08:40PM 39.2240 -103.4770 249° West 455 524 38,000  Level FlightAware
08:41PM 39.1890 -103.5930 249° West 455 524 38,000  Level FlightAware
08:42PM 39.1600 -103.6930 250° West 452 520 38,000  Level FlightAware
08:42PM 39.1260 -103.8030 248° West 450 518 38,000  Level FlightAware
08:43PM 39.0990 -103.8920 249° West 448 516 38,000  Level FlightAware
08:43PM 39.0720 -103.9820 249° West 445 512 38,000  Level FlightAware
08:44PM 39.0420 -104.0800 249° West 443 510 38,000  Level FlightAware
08:45PM 39.0100 -104.1860 249° West 442 509 38,000  Level FlightAware
08:46PM 38.9760 -104.2960 248° West 444 511 38,000  Level FlightAware
08:46PM 38.9420 -104.4040 248° West 439 505 38,000  Level FlightAware
08:47PM 38.9140 -104.4940 248° West 438 504 38,000  Level FlightAware
08:48PM 38.8840 -104.5900 248° West 438 504 38,000  Level FlightAware
08:48PM 38.8480 -104.7080 249° West 441 507 38,000  Level FlightAware
08:49PM 38.8170 -104.8050 248° West 442 509 38,000  Level FlightAware
08:50PM 38.7830 -104.9150 248° West 443 510 38,000  Level FlightAware
08:51PM 38.7520 -105.0130 248° West 443 510 38,000  Level FlightAware
08:51PM 38.7270 -105.0900 247° West 444 511 38,000  Level FlightAware
08:52PM 38.6980 -105.1830 248° West 446 513 38,000  Level FlightAware
08:52PM 38.6610 -105.2990 248° West 448 516 38,000  Level FlightAware
08:53PM 38.6250 -105.4090 247° West 447 514 38,000  Level FlightAware
08:54PM 38.6020 -105.4810 248° West 447 514 38,000  Level FlightAware
08:55PM 38.5590 -105.6140 248° West 447 514 38,000  Level FlightAware
08:55PM 38.5360 -105.6870 248° West 446 513 38,000  Level FlightAware
08:56PM 38.4930 -105.8210 248° West 447 514 38,000  Level FlightAware
08:57PM 38.4610 -105.9170 247° West 448 516 38,000  Level FlightAware
08:57PM 38.4260 -106.0230 247° West 447 514 38,000  Level FlightAware
08:58PM 38.3940 -106.1220 248° West 447 514 38,000  Level FlightAware
08:59PM 38.3590 -106.2290 247° West 446 513 38,000  Level FlightAware
08:59PM 38.3280 -106.3210 247° West 445 512 38,000  Level FlightAware
09:00PM 38.3090 -106.3780 247° West 445 512 38,000  Level FlightAware
09:01PM 38.2600 -106.5270 247° West 445 512 38,000  Level FlightAware
09:01PM 38.2360 -106.5980 247° West 444 511 38,000  Level FlightAware
09:02PM 38.1990 -106.7080 247° West 442 509 38,000  Level FlightAware
09:03PM 38.1670 -106.8030 247° West 440 506 38,000  Level FlightAware
09:04PM 38.1320 -106.9080 247° West 440 506 38,000  Level FlightAware
09:04PM 38.0980 -107.0070 246° West 438 504 38,000  Level FlightAware
09:05PM 38.0690 -107.0940 247° West 439 505 38,000  Level FlightAware
09:06PM 38.0370 -107.1880 247° West 441 507 38,000  Level FlightAware
09:06PM 38.0050 -107.2820 247° West 443 510 38,000  Level FlightAware
09:07PM 37.9660 -107.3930 246° West 447 514 38,000  Level FlightAware
09:08PM 37.9300 -107.4980 247° West 449 517 38,000  Level FlightAware
09:08PM 37.9070 -107.5650 247° West 450 518 38,000  Level FlightAware
09:09PM 37.8660 -107.6820 246° West 452 520 38,000  Level FlightAware
09:10PM 37.8340 -107.7750 246° West 453 521 38,000  Level FlightAware
09:10PM 37.7970 -107.8810 246° West 454 522 38,000  Level FlightAware
09:11PM 37.7770 -107.9400 247° West 453 521 38,000  Level FlightAware
09:12PM 37.7190 -108.1040 246° West 454 522 38,000  Level FlightAware
09:13PM 37.6850 -108.2000 246° West 456 525 38,000  Level FlightAware
09:13PM 37.6510 -108.2970 246° West 457 526 38,000  Level FlightAware
09:14PM 37.6140 -108.4000 246° West 458 527 38,000  Level FlightAware
09:15PM 37.5800 -108.4970 246° West 457 526 38,000  Level FlightAware
09:15PM 37.5430 -108.6000 246° West 457 526 38,000  Level FlightAware
09:16PM 37.5110 -108.6900 246° West 457 526 38,000  Level FlightAware
09:17PM 37.4740 -108.7920 245° Southwest 456 525 38,000  Level FlightAware
09:17PM 37.4490 -108.8610 245° Southwest 455 524 38,000  Level FlightAware
09:18PM 37.4160 -108.9510 245° Southwest 455 524 38,000  Level FlightAware
09:19PM 37.3690 -109.0820 246° West 455 524 38,000  Level FlightAware
09:19PM 37.3310 -109.1860 245° Southwest 452 520 38,000  Level FlightAware
09:20PM 37.2960 -109.2810 245° Southwest 453 521 38,000  Level FlightAware
09:21PM 37.2570 -109.3870 245° Southwest 453 521 38,000  Level FlightAware
09:21PM 37.2240 -109.4790 246° West 455 524 38,000  Level FlightAware
09:22PM 37.1980 -109.5480 245° Southwest 455 524 38,000  Level FlightAware
09:23PM 37.1330 -109.6340 227° Southwest 452 520 38,000  Level FlightAware
09:23PM 37.0610 -109.6810 208° Southwest 453 521 38,000  Level FlightAware
09:24PM 37.0010 -109.7200 207° Southwest 453 521 38,000  Level FlightAware
09:25PM 36.9250 -109.7680 207° Southwest 453 521 38,000  Level FlightAware
09:25PM 36.8680 -109.8050 207° Southwest 453 521 38,000  Level FlightAware
09:26PM 36.8100 -109.8410 206° Southwest 453 521 38,000  Level FlightAware
09:27PM 36.7340 -109.8900 207° Southwest 453 521 38,000  Level FlightAware
09:28PM 36.6500 -109.9430 207° Southwest 453 521 38,000  Level FlightAware
09:28PM 36.4970 -110.0490 209° Southwest 463 533 38,000  Level FlightAware
09:29PM 36.4150 -110.1020 207° Southwest 464 534 38,000  Level FlightAware
09:30PM 36.3410 -110.1670 215° Southwest 467 537 38,000  Level FlightAware
09:30PM 36.3260 -110.2080 246° West 468 539 38,000  Level FlightAware
09:31PM 36.3080 -110.3130 258° West 465 535 38,000  Level FlightAware
09:31PM 36.2930 -110.3940 257° West 465 535 38,000  Level FlightAware
09:32PM 36.2690 -110.5120 256° West 465 535 38,000  Level FlightAware
09:33PM 36.2480 -110.6170 256° West 464 534 38,000  Level FlightAware
09:33PM 36.2330 -110.6940 256° West 464 534 38,000  Level FlightAware
09:34PM 36.2160 -110.7760 256° West 464 534 38,000  Level FlightAware
09:35PM 36.1900 -110.9050 256° West 462 532 38,000  Level FlightAware
09:35PM 36.1680 -111.0140 256° West 460 529 38,000  Level FlightAware
09:36PM 36.1430 -111.1060 251° West 458 527 38,000  Level FlightAware
09:37PM 36.1020 -111.2130 245° Southwest 455 524 38,000  Level FlightAware
09:37PM 36.0620 -111.3190 245° Southwest 456 525 38,000  Level FlightAware
09:38PM 36.0230 -111.4220 245° Southwest 458 527 38,000  Level FlightAware
09:39PM 35.9870 -111.5180 245° Southwest 461 531 38,000  Level FlightAware
09:39PM 35.9510 -111.6170 246° West 463 533 38,000  Level FlightAware
09:40PM 35.9240 -111.6920 246° West 464 534 38,000  Level FlightAware
09:41PM 35.8920 -111.7950 249° West 464 534 38,000  Level FlightAware
09:41PM 35.8610 -111.8940 249° West 465 535 38,000  Level FlightAware
09:42PM 35.8320 -111.9910 250° West 466 536 38,000  Level FlightAware
09:43PM 35.8010 -112.0900 249° West 466 536 38,000  Level FlightAware
09:43PM 35.7680 -112.1980 249° West 468 539 38,000  Level FlightAware
09:44PM 35.7360 -112.3010 249° West 469 540 38,000  Level FlightAware
09:45PM 35.6990 -112.4160 248° West 470 541 38,000  Level FlightAware
09:45PM 35.6700 -112.5100 249° West 473 544 38,000  Level FlightAware
09:46PM 35.6380 -112.6120 249° West 474 545 38,000  Level FlightAware
09:47PM 35.6030 -112.7210 248° West 474 545 38,000  Level FlightAware
09:47PM 35.5720 -112.8200 249° West 472 543 38,000  Level FlightAware
09:48PM 35.5400 -112.9200 249° West 472 543 38,000  Level FlightAware
09:49PM 35.5080 -113.0210 249° West 473 544 38,000  Level FlightAware
09:49PM 35.4790 -113.1120 249° West 472 543 38,000  Level FlightAware
09:50PM 35.4440 -113.2190 248° West 470 541 38,000  Level FlightAware
09:51PM 35.4120 -113.3180 248° West 469 540 38,000  Level FlightAware
09:52PM 35.3770 -113.4270 249° West 466 536 38,000  Level FlightAware
09:52PM 35.3470 -113.5210 249° West 465 535 38,000  Level FlightAware
09:53PM 35.3100 -113.6340 248° West 466 536 38,000  Level FlightAware
09:54PM 35.2800 -113.7250 248° West 466 536 38,000  Level FlightAware
09:54PM 35.2500 -113.8170 248° West 467 537 38,000  Level FlightAware
09:55PM 35.2160 -113.9180 248° West 467 537 38,000  Level FlightAware
09:56PM 35.1810 -114.0250 248° West 467 537 38,000  Level FlightAware
09:56PM 35.1500 -114.1180 248° West 468 539 38,000  Level FlightAware
09:57PM 35.1170 -114.2180 248° West 467 537 38,000  Level FlightAware
09:58PM 35.0790 -114.3310 248° West 468 539 38,000  Level FlightAware
09:58PM 35.0440 -114.4380 248° West 470 541 38,000  Level FlightAware
09:59PM 35.0110 -114.5360 248° West 470 541 38,000  Level FlightAware
09:59PM 34.9940 -114.5870 248° West 470 541 38,000  Level FlightAware
10:01PM 34.9540 -114.7040 247° West 469 540 38,000  Level FlightAware
10:01PM 34.9070 -114.8410 247° West 470 541 38,000  Level FlightAware
10:02PM 34.8730 -114.9430 248° West 469 540 38,000  Level FlightAware
10:03PM 34.8360 -115.0500 247° West 472 543 38,000  Level FlightAware
10:03PM 34.8080 -115.1330 248° West 473 544 38,000 -300 Level FlightAware
10:04PM 34.7680 -115.2480 247° West 474 545 37,600 -720 Descending FlightAware
10:05PM 34.7360 -115.3420 248° West 473 544 37,000 -1,200 Descending FlightAware
10:05PM 34.6950 -115.4590 247° West 468 539 35,900 -1,440 Descending FlightAware
10:06PM 34.6690 -115.5340 247° West 468 539 35,200 -1,440 Descending FlightAware
10:07PM 34.6300 -115.6470 247° West 470 541 34,100 -1,380 Descending FlightAware
10:07PM 34.6030 -115.7250 247° West 470 541 33,400 -1,140 Descending FlightAware
10:08PM 34.5620 -115.8430 247° West 461 531 32,600 -960 Descending FlightAware
10:09PM 34.5250 -115.9480 247° West 438 504 32,000 -900 Descending FlightAware
10:10PM 34.4840 -116.0650 247° West 425 489 31,200 -960 Descending FlightAware
10:10PM 34.4500 -116.1600 247° West 418 481 30,500 -1,020 Descending FlightAware
10:11PM 34.4220 -116.2370 246° West 413 475 29,900 -900 Descending FlightAware
10:12PM 34.4010 -116.2970 247° West 413 475 29,400 -960 Descending FlightAware
10:12PM 34.3670 -116.3940 247° West 410 472 28,600 -1,200 Descending FlightAware
10:13PM 34.3340 -116.4860 247° West 404 465 27,900 -1,080 Descending FlightAware
10:14PM 34.3010 -116.5760 246° West 401 461 27,200 -1,320 Descending FlightAware
10:14PM 34.2710 -116.6620 247° West 419 482 26,100 -1,860 Descending FlightAware
10:15PM 34.2360 -116.7570 246° West 414 476 24,600 -2,040 Descending FlightAware
10:16PM 34.2110 -116.8280 247° West 409 471 23,500 -1,800 Descending FlightAware
10:16PM 34.1810 -116.9100 246° West 399 459 22,200 -2,040 Descending FlightAware
10:17PM 34.1440 -117.0100 246° West 391 450 20,500 -2,100 Descending FlightAware
10:18PM 34.1130 -117.0950 246° West 387 445 19,200 -2,160 Descending FlightAware
10:19PM 34.0810 -117.1700 243° Southwest 391 450 17,600 -2,100 Descending FlightAware
10:19PM 34.0490 -117.2530 245° Southwest 379 436 16,400 -2,280 Descending FlightAware
10:20PM 34.0390 -117.3450 263° West 384 442 14,400 -2,100 Descending FlightAware
10:21PM 34.0330 -117.4160 264° West 365 420 13,500 -1,380 Descending FlightAware
10:21PM 34.0240 -117.5020 263° West 340 391 12,500 -1,680 Descending FlightAware
10:22PM 34.0150 -117.5910 263° West 334 384 11,200 -1,860 Descending FlightAware
10:23PM 34.0090 -117.6590 264° West 321 369 10,100 -1,260 Descending FlightAware
10:23PM 34.0040 -117.7110 263° West 304 350 9,800 -960 Descending FlightAware
10:24PM 33.9990 -117.7570 263° West 309 356 9,200 -1,200 Descending FlightAware
10:24PM 33.9950 -117.8030 264° West 304 350 8,700 -1,080 Descending FlightAware
10:24PM 33.9930 -117.8230 263° West 299 344 8,500 -960 Descending FlightAware
10:25PM 33.9890 -117.8680 264° West 288 331 8,100 -1,380 Descending FlightAware
10:25PM 33.9840 -117.9130 262° West 291 335 7,300 -1,740 Descending FlightAware
10:26PM 33.9800 -117.9590 264° West 287 330 6,500 -1,560 Descending FlightAware
10:26PM 33.9770 -117.9990 265° West 279 321 5,900 -1,080 Descending FlightAware
10:27PM 33.9810 -118.0430 276° West 262 302 5,500 -720 Descending FlightAware
10:27PM 33.9850 -118.0710 280° West 249 287 5,300 -960 Descending FlightAware
10:27PM 33.9830 -118.1100 266° West 240 276 4,700 -1,200 Descending FlightAware
10:28PM 33.9790 -118.1410 261° West 238 274 4,200 -1,140 Descending FlightAware
10:28PM 33.9740 -118.1820 262° West 226 260 3,700 -1,020 Descending FlightAware
10:29PM 33.9710 -118.2100 263° West 217 250 3,300 -1,080 Descending FlightAware
10:29PM 33.9700 -118.2290 266° West 209 241 2,900 -1,200 Descending FlightAware
10:30PM 33.9650 -118.2780 263° West 180 207 2,100 -1,020 Descending FlightAware
10:31PM 33.9610 -118.3180 263° West 152 175 1,500 -720 Descending FlightAware
10:31PM 33.9590 -118.3370 263° West 155 178 1,300 -840 Descending FlightAware
10:31PM 33.9560 -118.3650 263° West 145 167 800 -840 Descending FlightAware
10:32PM 33.9540 -118.3850 263° West 145 167 500 -660 Descending FlightAware
10:32PM 33.9520 -118.4000 261° West 144 166 200 -360 Descending FlightAware
10:33PM 33.9500 -118.4190 263° West 144 166 200  Level FlightAware
10:40PM 33.9425 -118.4081 259° West  Level Estimated
10:41PM 33.9425 -118.4081 259° West  Level Estimated